RJNH(METAR)
07/28 19:22
RJNH 281022Z 22011KT 9999 FEW008 BKN010 BKN/// 28/25 Q1001 RMK
1ST008 5ST010 A2956=
戻る
トップページへ戻る
IMOC Co,.Ltd.